Time;durP1;ratioP1;P1;durP2;ratioP2;P2;SDS_P1;SDS_P2;PMS_P1;PMS_P2;Temp;Humidity;BMP_temperature;BMP_pressure;BME280_temperature;BME280_humidity;BME280_pressure;Samples;Min_cycle;Max_cycle;Signal;HPM_P1;HPM_P2
2021/07/07 00:04:06;;;;;;;13.15;10.78;;;;;;;19.27;76.89;98820.43;4389545;79;21006;-81
2021/07/07 00:10:12;;;;;;;18.57;12.53;;;;;;;19.10;77.35;98828.02;4390008;79;21554;-82
2021/07/07 00:16:13;;;;;;;14.65;11.75;;;;;;;19.08;77.59;98829.05;4330108;81;21074;-81
2021/07/07 00:22:14;;;;;;;15.83;13.13;;;;;;;19.11;78.06;98833.72;4349282;80;21010;-81
2021/07/07 00:28:16;;;;;;;17.87;12.35;;;;;;;19.05;77.81;98827.74;4391858;79;20987;-81
2021/07/07 00:34:18;;;;;;;18.02;10.48;;;;;;;18.97;78.28;98834.09;4394226;79;21029;-80
2021/07/07 00:40:19;;;;;;;17.48;12.68;;;;;;;19.01;78.40;98828.45;4392143;79;21010;-80
2021/07/07 00:46:21;;;;;;;17.62;13.85;;;;;;;18.89;78.15;98827.15;4349146;79;21585;-80
2021/07/07 00:52:22;;;;;;;14.90;12.75;;;;;;;18.76;78.39;98828.29;4308137;81;21065;-80
2021/07/07 00:58:26;;;;;;;17.07;14.00;;;;;;;18.48;78.65;98826.35;4304731;81;21090;-80
2021/07/07 01:04:27;;;;;;;16.48;13.48;;;;;;;18.38;79.03;98825.22;4247508;81;21095;-81
2021/07/07 01:10:28;;;;;;;14.95;13.43;;;;;;;18.31;79.13;98825.34;4224796;82;21102;-80
2021/07/07 01:16:31;;;;;;;17.30;13.18;;;;;;;18.13;79.40;98831.89;4307484;81;21101;-80
2021/07/07 01:22:32;;;;;;;15.28;12.53;;;;;;;18.04;79.73;98826.16;4249633;82;21079;-80
2021/07/07 01:28:33;;;;;;;15.80;14.05;;;;;;;17.92;80.07;98820.66;4268507;83;21082;-80
2021/07/07 01:34:34;;;;;;;21.48;14.15;;;;;;;17.89;80.20;98828.44;4246983;81;21031;-80
2021/07/07 01:40:36;;;;;;;19.75;13.98;;;;;;;17.84;80.57;98830.91;4316346;80;21070;-81
2021/07/07 01:46:37;;;;;;;15.25;13.15;;;;;;;17.76;80.55;98821.97;4262766;82;21572;-80
2021/07/07 01:52:40;;;;;;;16.23;11.95;;;;;;;17.66;80.81;98822.98;4278328;81;21590;-80
2021/07/07 01:58:41;;;;;;;13.28;11.88;;;;;;;17.63;81.06;98820.28;4333156;80;21053;-80
2021/07/07 02:04:43;;;;;;;17.57;13.53;;;;;;;17.66;81.56;98822.20;4333867;80;21495;-80
2021/07/07 02:10:44;;;;;;;20.12;14.63;;;;;;;17.81;81.39;98826.23;4338543;79;21555;-80
2021/07/07 02:16:45;;;;;;;13.48;11.55;;;;;;;17.78;81.15;98821.55;4331939;80;21046;-80
2021/07/07 02:22:48;;;;;;;15.98;12.88;;;;;;;17.59;81.25;98820.94;4333482;80;21042;-79
2021/07/07 02:28:50;;;;;;;17.73;15.40;;;;;;;17.55;81.43;98826.56;4302386;80;21586;-79
2021/07/07 02:34:51;;;;;;;17.55;14.63;;;;;;;17.50;81.60;98827.05;4331663;80;21055;-80
2021/07/07 02:40:54;;;;;;;18.05;14.05;;;;;;;17.43;81.76;98820.84;4336830;80;21066;-80
2021/07/07 02:46:57;;;;;;;19.92;15.48;;;;;;;17.42;81.86;98833.10;4321069;80;21121;-80
2021/07/07 02:52:59;;;;;;;15.28;13.68;;;;;;;17.29;81.87;98835.70;4309390;81;21039;-81
2021/07/07 02:59:00;;;;;;;18.05;14.03;;;;;;;17.24;82.29;98837.60;4305288;81;21022;-80
2021/07/07 03:05:05;;;;;;;20.65;14.58;;;;;;;17.15;82.15;98839.52;4307529;79;21523;-81
2021/07/07 03:11:05;;;;;;;16.82;12.68;;;;;;;17.08;82.47;98847.16;4306591;81;21003;-80
2021/07/07 03:17:06;;;;;;;14.98;13.20;;;;;;;17.14;82.75;98851.80;4306724;81;21013;-81
2021/07/07 03:23:10;;;;;;;20.45;15.95;;;;;;;17.17;82.92;98864.78;4302348;81;22000;-80
2021/07/07 03:29:11;;;;;;;14.70;13.00;;;;;;;17.34;83.07;98878.73;4299864;81;21427;-80
2021/07/07 03:35:13;;;;;;;18.90;13.70;;;;;;;17.41;82.99;98876.61;4309809;81;21042;-79
2021/07/07 03:41:14;;;;;;;19.52;14.68;;;;;;;17.37;82.98;98873.73;4302416;81;21098;-80
2021/07/07 03:47:15;;;;;;;21.55;15.00;;;;;;;17.37;83.16;98875.12;4309559;81;21031;-80
2021/07/07 03:53:17;;;;;;;16.02;11.85;;;;;;;17.40;83.41;98870.88;4200395;82;92917;-80
2021/07/07 03:59:19;;;;;;;16.37;12.25;;;;;;;17.58;83.62;98875.53;4202907;82;21023;-80
2021/07/07 04:05:23;;;;;;;19.50;14.40;;;;;;;17.74;83.55;98877.60;4131327;84;21082;-80
2021/07/07 04:11:25;;;;;;;17.92;12.25;;;;;;;17.78;83.64;98879.69;4127404;84;21073;-81
2021/07/07 04:17:26;;;;;;;17.57;13.68;;;;;;;17.94;83.66;98890.84;4155130;84;21072;-80
2021/07/07 04:23:27;;;;;;;19.82;13.75;;;;;;;18.11;83.57;98888.31;4155020;84;21080;-80
2021/07/07 04:29:30;;;;;;;24.92;15.38;;;;;;;18.28;83.40;98890.72;4154979;84;21608;-81
2021/07/07 04:35:32;;;;;;;27.60;17.60;;;;;;;18.41;83.34;98897.80;4156366;84;21034;-80
2021/07/07 04:41:34;;;;;;;25.85;20.00;;;;;;;18.50;83.28;98900.16;4156312;84;21159;-80
2021/07/07 04:47:37;;;;;;;24.00;17.80;;;;;;;18.70;83.13;98907.03;4153559;84;21645;-80
2021/07/07 04:53:40;;;;;;;23.95;17.75;;;;;;;18.87;82.83;98918.31;4153548;83;21575;-80
2021/07/07 04:59:42;;;;;;;21.45;17.40;;;;;;;19.02;82.70;98920.16;4226823;82;21014;-80
2021/07/07 05:05:43;;;;;;;23.73;16.23;;;;;;;19.19;82.48;98917.56;4225909;82;21039;-81
2021/07/07 05:11:46;;;;;;;23.85;17.48;;;;;;;19.36;82.46;98917.16;4226645;81;20983;-80
2021/07/07 05:17:49;;;;;;;19.25;15.00;;;;;;;19.47;82.69;98922.42;4230604;82;22249;-81
2021/07/07 05:23:50;;;;;;;20.40;15.03;;;;;;;19.63;82.65;98923.80;4229749;81;21102;-81
2021/07/07 05:29:52;;;;;;;16.93;14.47;;;;;;;19.82;82.79;98924.28;4227383;82;20974;-81
2021/07/07 05:35:53;;;;;;;18.90;15.32;;;;;;;20.08;82.90;98920.36;4228289;82;21078;-81
2021/07/07 05:41:55;;;;;;;20.32;14.73;;;;;;;20.35;83.17;98923.59;4227528;82;21033;-81
2021/07/07 05:47:58;;;;;;;16.87;14.20;;;;;;;20.66;83.24;98923.24;4215554;82;21051;-82
2021/07/07 05:53:59;;;;;;;20.65;14.58;;;;;;;20.92;83.15;98916.45;4201384;82;21059;-81
2021/07/07 06:00:23;;;;;;;18.45;13.88;;;;;;;21.23;82.90;98922.27;4202261;82;21042;-82
2021/07/07 06:06:24;;;;;;;19.25;12.28;;;;;;;21.47;82.88;98923.45;4130723;84;21078;-81
2021/07/07 06:12:25;;;;;;;17.45;12.05;;;;;;;21.70;82.58;98928.02;4153127;84;21070;-81
2021/07/07 06:18:27;;;;;;;15.85;12.18;;;;;;;21.91;82.10;98926.49;4209508;82;21035;-81
2021/07/07 06:24:29;;;;;;;14.90;10.63;;;;;;;22.13;81.88;98927.92;4129278;84;21077;-81
2021/07/07 06:30:31;;;;;;;14.73;10.63;;;;;;;22.36;81.55;98927.45;4155260;82;21060;-82
2021/07/07 06:36:33;;;;;;;12.15;10.05;;;;;;;22.58;81.07;98933.18;4157615;84;21064;-84
2021/07/07 06:42:35;;;;;;;14.83;10.40;;;;;;;22.85;79.45;98929.14;4156748;84;21055;-81
2021/07/07 06:48:36;;;;;;;10.88;9.55;;;;;;;23.11;79.54;98929.11;4152900;82;21116;-82
2021/07/07 06:54:37;;;;;;;14.00;9.88;;;;;;;23.36;79.14;98943.47;4152707;84;21606;-82
2021/07/07 07:00:39;;;;;;;14.30;9.43;;;;;;;23.81;78.96;98944.94;4155918;84;21547;-82
2021/07/07 07:06:42;;;;;;;10.58;9.13;;;;;;;24.43;78.23;98944.78;4152904;84;21106;-82
2021/07/07 07:12:43;;;;;;;11.57;8.33;;;;;;;25.03;77.10;98941.98;4155320;84;21007;-82
2021/07/07 07:18:45;;;;;;;12.60;7.83;;;;;;;25.81;76.82;98934.70;4150690;85;21154;-82
2021/07/07 07:24:47;;;;;;;11.12;7.80;;;;;;;26.58;74.99;98935.44;4155218;84;21030;-82
2021/07/07 07:30:50;;;;;;;8.30;7.12;;;;;;;27.20;73.44;98929.72;4156361;84;21110;-82
2021/07/07 07:36:58;;;;;;;8.40;7.50;;;;;;;27.78;71.89;98922.38;4119791;84;21051;-83
2021/07/07 07:42:56;;;;;;;7.67;6.87;;;;;;;28.25;70.35;98930.38;4151012;84;21094;-82
2021/07/07 07:49:02;;;;;;;8.55;7.75;;;;;;;28.35;69.03;98928.30;4154844;82;20998;-82
2021/07/07 07:55:05;;;;;;;10.68;7.00;;;;;;;28.67;68.02;98930.56;4212989;83;22277;-83
2021/07/07 08:01:06;;;;;;;8.50;6.65;;;;;;;29.03;65.47;98937.66;4211819;83;21063;-82
2021/07/07 08:07:08;;;;;;;10.18;7.33;;;;;;;29.26;65.05;98938.61;4216190;83;21551;-83
2021/07/07 08:13:09;;;;;;;8.18;7.00;;;;;;;29.25;63.60;98939.89;4214244;83;21082;-82
2021/07/07 08:19:10;;;;;;;11.18;6.72;;;;;;;29.11;60.21;98946.45;4214181;83;21133;-82
2021/07/07 08:25:13;;;;;;;6.28;5.67;;;;;;;29.35;59.33;98938.40;4214380;83;21039;-82
2021/07/07 08:31:15;;;;;;;6.65;5.12;;;;;;;29.52;59.72;98944.91;4217043;83;21089;-83
2021/07/07 08:37:16;;;;;;;5.00;4.50;;;;;;;29.60;57.86;98942.41;4215090;83;21054;-83
2021/07/07 08:43:18;;;;;;;6.40;5.25;;;;;;;29.50;56.77;98943.88;4225660;83;21022;-82
2021/07/07 08:49:21;;;;;;;4.78;4.30;;;;;;;29.55;57.10;98941.11;4283380;81;21097;-82
2021/07/07 08:55:23;;;;;;;6.53;3.00;;;;;;;29.66;55.92;98943.98;4312651;81;21086;-82
2021/07/07 09:01:24;;;;;;;4.08;3.42;;;;;;;29.80;54.60;98945.09;4309675;81;21077;-83
2021/07/07 09:07:31;;;;;;;6.37;3.85;;;;;;;29.73;53.81;98949.80;4317574;81;21018;-83
2021/07/07 09:13:33;;;;;;;7.62;4.25;;;;;;;29.74;52.55;98948.54;4293198;81;21062;-83
2021/07/07 09:19:37;;;;;;;4.62;4.22;;;;;;;29.83;52.66;98950.51;4290622;81;21086;-85
2021/07/07 09:26:02;;;;;;;4.58;3.90;;;;;;;29.96;51.62;98951.46;4291859;81;21063;-82
2021/07/07 09:32:27;;;;;;;3.90;3.53;;;;;;;30.02;50.00;98959.30;4294343;81;21052;-82
2021/07/07 09:38:39;;;;;;;4.00;3.60;;;;;;;30.31;49.08;98949.02;4292571;81;21143;-82
2021/07/07 09:44:42;;;;;;;6.33;3.95;;;;;;;30.50;44.41;98955.11;4262771;81;21539;-83
2021/07/07 09:50:45;;;;;;;4.03;3.40;;;;;;;31.02;45.04;98959.68;4225985;81;21039;-82
2021/07/07 09:56:46;;;;;;;5.65;3.95;;;;;;;31.20;44.96;98965.43;4208046;82;21026;-83
2021/07/07 10:02:53;;;;;;;5.35;3.45;;;;;;;31.12;45.03;98970.84;4210711;82;21053;-82
2021/07/07 10:08:55;;;;;;;4.17;3.77;;;;;;;31.16;45.95;98972.78;4209818;82;21039;-83
2021/07/07 10:14:57;;;;;;;5.67;3.72;;;;;;;31.55;45.68;98975.58;4209449;82;21157;-83
2021/07/07 10:20:58;;;;;;;4.50;4.10;;;;;;;31.43;45.46;98974.06;4215034;81;21607;-84
2021/07/07 10:27:06;;;;;;;4.35;4.00;;;;;;;31.54;43.23;98968.39;4212120;82;21018;-83
2021/07/07 10:33:10;;;;;;;4.03;3.30;;;;;;;31.89;43.80;98967.92;4212642;82;21042;-80
2021/07/07 10:39:15;;;;;;;6.12;3.70;;;;;;;32.29;42.13;98961.44;4210307;82;21522;-83
2021/07/07 10:45:41;;;;;;;4.22;3.83;;;;;;;32.33;40.08;98959.08;4211215;82;21054;-83
2021/07/07 10:51:47;;;;;;;;;;;;;;;32.68;41.63;98968.44;4208858;81;21006;-83
2021/07/07 10:57:49;;;;;;;5.90;3.72;;;;;;;32.77;40.79;98964.50;4214134;83;20158;-83
2021/07/07 11:04:01;;;;;;;4.85;3.62;;;;;;;33.05;40.44;98964.44;4208993;83;21559;-82
2021/07/07 11:10:17;;;;;;;4.50;3.85;;;;;;;33.17;39.14;98956.61;4208179;83;21046;-82
2021/07/07 11:16:23;;;;;;;3.70;3.40;;;;;;;33.62;39.30;98957.73;4210162;83;21966;-84
2021/07/07 11:22:25;;;;;;;4.15;3.77;;;;;;;33.98;39.66;98957.73;4209241;83;21000;-84
2021/07/07 11:28:26;;;;;;;4.00;3.60;;;;;;;34.24;37.67;98953.62;4208157;83;20987;-84
2021/07/07 11:34:52;;;;;;;5.08;3.80;;;;;;;34.71;38.41;98963.95;4206400;83;21370;-83
2021/07/07 11:40:56;;;;;;;5.50;4.03;;;;;;;34.87;37.01;98951.56;4210055;83;21195;-85
2021/07/07 11:46:58;;;;;;;3.98;3.58;;;;;;;34.93;35.74;98948.64;4207156;83;21019;-83
2021/07/07 11:53:06;;;;;;;4.78;3.60;;;;;;;35.20;34.64;98948.19;4211884;82;21011;-82
2021/07/07 11:59:12;;;;;;;4.08;3.67;;;;;;;35.53;35.63;98944.77;4188490;82;21066;-84
2021/07/07 12:05:14;;;;;;;4.37;3.60;;;;;;;35.45;35.08;98950.99;4208926;82;21080;-82
2021/07/07 12:11:18;;;;;;;5.55;4.00;;;;;;;35.38;34.75;98954.47;4208351;82;21131;-83
2021/07/07 12:17:21;;;;;;;3.50;3.27;;;;;;;35.06;31.78;98955.80;4207928;82;21015;-83
2021/07/07 12:23:23;;;;;;;4.92;3.65;;;;;;;34.34;33.07;98954.02;4211754;82;21047;-83
2021/07/07 12:29:28;;;;;;;4.97;4.17;;;;;;;34.31;33.15;98952.25;4201954;81;21066;-83
2021/07/07 12:35:30;;;;;;;4.97;4.30;;;;;;;33.77;34.46;98961.55;4201258;82;21828;-83
2021/07/07 12:41:35;;;;;;;6.47;3.75;;;;;;;33.24;35.05;98968.14;4213703;78;26602;-84
2021/07/07 12:47:37;;;;;;;6.22;4.53;;;;;;;32.91;35.40;98964.80;4247335;81;21060;-83
2021/07/07 12:53:44;;;;;;;4.62;4.15;;;;;;;32.74;36.49;98963.50;4306831;81;21029;-83
2021/07/07 12:59:53;;;;;;;5.58;3.92;;;;;;;32.70;36.76;98967.25;4306154;81;21067;-83
2021/07/07 13:05:55;;;;;;;4.92;4.40;;;;;;;32.47;36.62;98963.66;4277703;82;20998;-84
2021/07/07 13:12:10;;;;;;;5.47;3.80;;;;;;;32.24;37.15;98970.72;4279573;82;21120;-84
2021/07/07 13:18:11;;;;;;;5.20;3.87;;;;;;;32.21;38.04;98978.85;4280771;82;21011;-84
2021/07/07 13:24:24;;;;;;;4.65;3.92;;;;;;;32.15;37.87;98978.89;4278716;82;21096;-83
2021/07/07 13:30:29;;;;;;;5.35;3.75;;;;;;;32.18;37.92;98978.48;4278102;82;21031;-83
2021/07/07 13:36:37;;;;;;;5.78;3.77;;;;;;;32.12;37.72;98976.33;4279790;82;21093;-82
2021/07/07 13:42:41;;;;;;;4.10;3.80;;;;;;;31.99;38.42;98971.23;4274695;82;21094;-84
2021/07/07 13:48:42;;;;;;;4.40;4.00;;;;;;;31.82;38.58;98976.91;4240289;82;21075;-84
2021/07/07 13:54:44;;;;;;;4.12;3.72;;;;;;;31.71;38.44;98973.36;4260279;82;21626;-84
2021/07/07 14:00:45;;;;;;;4.45;3.80;;;;;;;31.66;38.79;98984.04;4259068;82;21130;-83
2021/07/07 14:06:46;;;;;;;4.95;4.42;;;;;;;31.61;39.33;98981.98;4256894;82;21043;-84
2021/07/07 14:12:48;;;;;;;4.22;3.92;;;;;;;31.59;39.54;98985.34;4257588;82;21087;-84
2021/07/07 14:18:49;;;;;;;4.97;4.25;;;;;;;31.32;40.12;98981.16;4259453;82;21018;-83
2021/07/07 14:24:51;;;;;;;4.58;4.17;;;;;;;31.11;40.14;98985.49;4256324;82;21085;-84
2021/07/07 14:30:52;;;;;;;4.25;3.90;;;;;;;31.14;40.82;98988.06;4259611;82;21023;-83
2021/07/07 14:36:54;;;;;;;4.42;4.03;;;;;;;31.22;40.46;98991.92;4259327;82;21591;-83
2021/07/07 14:42:55;;;;;;;5.92;4.40;;;;;;;31.41;40.64;98987.95;4259393;82;21543;-83
2021/07/07 14:48:57;;;;;;;8.43;3.98;;;;;;;31.50;40.50;98985.63;4250410;82;21075;-83
2021/07/07 14:54:58;;;;;;;5.83;4.28;;;;;;;31.47;40.59;98983.05;4236335;82;21669;-82
2021/07/07 15:00:59;;;;;;;5.28;4.72;;;;;;;31.39;40.65;98979.98;4236641;82;21016;-83
2021/07/07 15:07:01;;;;;;;6.33;4.87;;;;;;;31.34;40.82;98975.09;4237733;82;21055;-84
2021/07/07 15:13:05;;;;;;;5.50;4.90;;;;;;;31.34;40.51;98980.00;4237417;82;21115;-82
2021/07/07 15:19:07;;;;;;;6.17;4.53;;;;;;;31.36;40.96;98983.84;4236290;82;21050;-83
2021/07/07 15:25:10;;;;;;;4.90;4.40;;;;;;;31.30;40.98;98977.42;4239120;82;21385;-83
2021/07/07 15:31:11;;;;;;;5.10;4.60;;;;;;;31.29;40.88;98977.91;4237535;82;21007;-83
2021/07/07 15:37:13;;;;;;;8.15;4.95;;;;;;;31.20;41.11;98982.39;4235452;82;21597;-84
2021/07/07 15:43:15;;;;;;;7.80;5.03;;;;;;;30.98;41.26;98976.11;4235000;82;21092;-83
2021/07/07 15:49:19;;;;;;;5.00;4.60;;;;;;;30.90;40.88;98975.08;4232014;82;21051;-83
2021/07/07 15:55:21;;;;;;;5.13;4.63;;;;;;;30.84;40.84;98982.03;4233547;82;21054;-83
2021/07/07 16:01:22;;;;;;;6.03;4.40;;;;;;;30.69;41.22;98983.65;4234435;82;21578;-83
2021/07/07 16:07:24;;;;;;;7.12;4.67;;;;;;;30.59;41.63;98991.47;4235526;82;21072;-84
2021/07/07 16:13:25;;;;;;;5.33;4.83;;;;;;;30.45;41.80;98995.41;4231652;82;21062;-83
2021/07/07 16:19:26;;;;;;;4.92;4.28;;;;;;;30.32;42.52;98993.69;4236375;82;21042;-83
2021/07/07 16:25:30;;;;;;;10.55;4.92;;;;;;;30.24;42.79;98996.12;4240097;82;21038;-83
2021/07/07 16:31:32;;;;;;;6.72;4.75;;;;;;;30.17;43.00;98993.11;4236641;82;21110;-83
2021/07/07 16:37:34;;;;;;;6.72;5.10;;;;;;;30.12;43.31;99002.95;4234216;82;21029;-84
2021/07/07 16:43:35;;;;;;;5.03;4.53;;;;;;;30.00;43.67;99002.15;4236763;82;22257;-84
2021/07/07 16:49:36;;;;;;;4.90;4.40;;;;;;;29.90;43.77;99006.45;4254036;81;21054;-84
2021/07/07 16:55:40;;;;;;;5.00;4.60;;;;;;;29.84;43.97;99008.48;4307510;81;21603;-83
2021/07/07 17:01:41;;;;;;;8.30;4.62;;;;;;;29.76;44.27;99011.63;4304703;81;21520;-83
2021/07/07 17:07:42;;;;;;;5.25;4.75;;;;;;;29.64;44.69;99021.31;4303752;81;21038;-83
2021/07/07 17:13:43;;;;;;;5.10;4.60;;;;;;;29.51;45.20;99021.56;4309103;81;21573;-83
2021/07/07 17:19:45;;;;;;;6.22;5.15;;;;;;;29.38;45.61;99023.39;4278199;82;20998;-83
2021/07/07 17:25:46;;;;;;;6.28;4.92;;;;;;;29.28;45.95;99027.69;4278906;82;20986;-83
2021/07/07 17:31:48;;;;;;;6.55;5.55;;;;;;;29.17;46.36;99029.00;4273902;82;21061;-83
2021/07/07 17:37:49;;;;;;;6.10;5.20;;;;;;;29.03;46.74;99029.25;4276268;82;21038;-83
2021/07/07 17:43:51;;;;;;;6.80;5.10;;;;;;;28.92;47.13;99030.55;4279374;82;21034;-83
2021/07/07 17:49:53;;;;;;;5.37;4.87;;;;;;;28.81;47.52;99033.89;4271242;82;21053;-83
2021/07/07 17:55:54;;;;;;;7.75;5.87;;;;;;;28.68;47.99;99044.12;4255529;82;21047;-83
2021/07/07 18:01:56;;;;;;;12.28;5.08;;;;;;;28.53;48.49;99046.91;4252656;82;21714;-83
2021/07/07 18:07:58;;;;;;;6.00;5.30;;;;;;;28.35;49.01;99041.53;4257981;82;21563;-83
2021/07/07 18:13:59;;;;;;;8.98;5.62;;;;;;;28.16;49.58;99056.53;4259722;82;21030;-83
2021/07/07 18:20:06;;;;;;;6.95;5.80;;;;;;;27.99;50.23;99051.31;4255499;82;21507;-83
2021/07/07 18:26:08;;;;;;;9.10;6.45;;;;;;;27.78;50.67;99060.19;4259617;82;21508;-82
2021/07/07 18:32:09;;;;;;;13.03;9.60;;;;;;;27.61;51.31;99071.20;4260333;82;21018;-82
2021/07/07 18:38:12;;;;;;;12.13;8.63;;;;;;;27.43;51.65;99079.23;4258087;82;20982;-83
2021/07/07 18:44:14;;;;;;;14.03;9.90;;;;;;;27.19;52.42;99086.95;4259014;82;21050;-83
2021/07/07 18:50:17;;;;;;;10.13;8.30;;;;;;;26.99;52.98;99093.09;4246796;82;21081;-83
2021/07/07 18:56:18;;;;;;;15.25;8.03;;;;;;;26.56;53.90;99086.11;4234668;82;21003;-83
2021/07/07 19:02:20;;;;;;;8.35;7.50;;;;;;;26.29;54.80;99105.98;4118186;80;9999505;-82
2021/07/07 19:08:24;;;;;;;8.48;7.62;;;;;;;26.04;55.54;99107.20;4234057;82;21015;-83
2021/07/07 19:14:25;;;;;;;9.55;8.60;;;;;;;25.87;56.37;99116.48;4233342;82;21052;-82
2021/07/07 19:20:27;;;;;;;11.40;8.25;;;;;;;25.70;57.26;99120.28;4231763;82;21599;-83
2021/07/07 19:26:29;;;;;;;11.97;8.18;;;;;;;25.59;58.28;99130.47;4229835;82;21997;-83
2021/07/07 19:32:30;;;;;;;12.43;9.18;;;;;;;25.45;59.20;99133.95;4233784;82;20987;-82
2021/07/07 19:38:31;;;;;;;15.53;12.78;;;;;;;25.27;59.65;99136.13;4227243;82;21027;-83
2021/07/07 19:44:35;;;;;;;20.00;12.30;;;;;;;24.99;60.18;99138.04;4232452;82;21512;-82
2021/07/07 19:50:36;;;;;;;19.07;13.88;;;;;;;24.81;61.08;99138.82;4229741;81;21992;-82
2021/07/07 19:56:38;;;;;;;19.07;14.90;;;;;;;24.78;61.25;99146.75;4230702;82;21023;-82
2021/07/07 20:02:41;;;;;;;19.00;13.20;;;;;;;24.68;61.74;99150.17;4243387;82;21553;-83
2021/07/07 20:08:43;;;;;;;19.32;14.70;;;;;;;24.44;62.75;99168.79;4231181;82;21995;-82
2021/07/07 20:14:45;;;;;;;17.48;12.55;;;;;;;24.40;63.01;99182.78;4229734;82;21124;-82
2021/07/07 20:20:46;;;;;;;18.52;12.43;;;;;;;24.37;63.57;99187.26;4229682;82;22040;-82
2021/07/07 20:26:48;;;;;;;16.57;12.45;;;;;;;24.29;64.40;99193.63;4233830;82;20991;-82
2021/07/07 20:32:49;;;;;;;19.90;12.33;;;;;;;24.27;64.81;99196.10;4232621;82;21521;-82
2021/07/07 20:38:50;;;;;;;19.62;10.40;;;;;;;24.26;65.07;99204.31;4235793;82;20980;-82
2021/07/07 20:44:52;;;;;;;12.18;7.92;;;;;;;24.21;65.43;99207.09;4233494;82;20990;-82
2021/07/07 20:50:54;;;;;;;12.85;9.33;;;;;;;24.27;65.67;99210.88;4256581;81;21148;-82
2021/07/07 20:56:55;;;;;;;13.35;7.40;;;;;;;24.24;66.02;99218.77;4306415;80;21085;-82
2021/07/07 21:02:57;;;;;;;14.87;6.50;;;;;;;24.02;66.76;99222.28;4182697;81;10000328;-82
2021/07/07 21:08:59;;;;;;;12.53;5.17;;;;;;;23.94;67.12;99232.16;4308251;81;21042;-81
2021/07/07 21:15:04;;;;;;;9.68;4.03;;;;;;;23.84;69.35;99247.92;4305240;81;21573;-83
2021/07/07 21:21:05;;;;;;;11.22;4.50;;;;;;;23.72;68.15;99257.17;4302907;81;21084;-81
2021/07/07 21:27:07;;;;;;;13.15;4.10;;;;;;;23.63;68.20;99276.08;4304891;81;20993;-82
2021/07/07 21:33:08;;;;;;;9.98;4.03;;;;;;;23.50;68.43;99278.77;4307163;81;21105;-82
2021/07/07 21:39:10;;;;;;;8.65;3.72;;;;;;;23.41;68.83;99283.68;4306198;81;21602;-82
2021/07/07 21:45:12;;;;;;;7.10;3.40;;;;;;;23.28;68.92;99296.12;4310327;80;20970;-82
2021/07/07 21:51:13;;;;;;;9.38;3.33;;;;;;;23.16;69.09;99312.44;4287707;81;21079;-81
2021/07/07 21:57:16;;;;;;;7.05;3.67;;;;;;;23.02;69.27;99321.30;4239318;82;21070;-81
2021/07/07 22:03:18;;;;;;;6.12;3.02;;;;;;;22.88;69.37;99330.79;4238601;82;21042;-82
2021/07/07 22:09:19;;;;;;;5.50;3.45;;;;;;;22.73;69.93;99335.25;4236623;82;21685;-81
2021/07/07 22:15:22;;;;;;;7.67;3.50;;;;;;;22.65;70.19;99335.31;4233792;82;21029;-81
2021/07/07 22:21:24;;;;;;;7.28;3.37;;;;;;;22.59;70.20;99342.09;4236002;82;21027;-82
2021/07/07 22:27:26;;;;;;;12.47;4.60;;;;;;;22.53;70.51;99345.87;4123265;84;21027;-81
2021/07/07 22:33:27;;;;;;;7.80;3.45;;;;;;;22.39;70.44;99353.27;4155521;84;21073;-81
2021/07/07 22:39:28;;;;;;;14.28;3.27;;;;;;;22.19;70.87;99354.84;4128641;84;21936;-82
2021/07/07 22:45:30;;;;;;;6.12;3.50;;;;;;;22.15;70.99;99363.94;4135155;84;21078;-81
2021/07/07 22:51:31;;;;;;;5.97;2.72;;;;;;;22.10;71.08;99357.52;4158981;83;21070;-81
2021/07/07 22:57:33;;;;;;;8.53;2.90;;;;;;;22.00;71.12;99364.80;4228228;82;21651;-80
2021/07/07 23:03:34;;;;;;;8.08;3.37;;;;;;;21.96;71.21;99363.50;4229554;83;21361;-81
2021/07/07 23:09:35;;;;;;;5.00;3.12;;;;;;;21.90;71.25;99371.45;4233760;83;21076;-80
2021/07/07 23:15:37;;;;;;;7.83;3.50;;;;;;;21.77;71.52;99383.95;4250380;82;21093;-81
2021/07/07 23:21:38;;;;;;;8.15;3.55;;;;;;;21.63;71.51;99387.89;4172627;84;21146;-81
2021/07/07 23:27:40;;;;;;;6.78;3.33;;;;;;;21.51;71.64;99383.05;4138452;83;21030;-81
2021/07/07 23:33:41;;;;;;;5.45;3.12;;;;;;;21.47;72.06;99393.49;4228012;82;21035;-81
2021/07/07 23:39:43;;;;;;;5.70;3.08;;;;;;;21.34;72.47;99398.23;4286584;81;21132;-81
2021/07/07 23:45:44;;;;;;;9.38;3.60;;;;;;;21.34;72.57;99399.63;4288484;81;21406;-81
2021/07/07 23:51:46;;;;;;;6.05;3.50;;;;;;;21.29;72.59;99402.94;4214886;83;21005;-81
2021/07/07 23:57:47;;;;;;;7.10;2.80;;;;;;;21.23;72.76;99408.06;4255822;82;21052;-81
